Time;durP1;ratioP1;P1;durP2;ratioP2;P2;SDS_P1;SDS_P2;PMS_P1;PMS_P2;Temp;Humidity;BMP_temperature;BMP_pressure;BME280_temperature;BME280_humidity;BME280_pressure;Samples;Min_cycle;Max_cycle;Signal;HPM_P1;HPM_P2
2021/12/22 00:01:10;;;;;;;3.85;3.03;;;-8.60;99.90;;;;;;5030173;28;20065;-77
2021/12/22 00:03:39;;;;;;;5.63;2.80;;;-8.60;99.90;;;;;;5012250;28;20053;-77
2021/12/22 00:06:06;;;;;;;5.43;2.50;;;-8.60;99.90;;;;;;5030766;28;20131;-80
2021/12/22 00:08:41;;;;;;;4.82;3.03;;;-8.60;99.90;;;;;;5038657;28;20065;-81
2021/12/22 00:11:13;;;;;;;5.53;2.60;;;-8.60;99.90;;;;;;5024639;28;20418;-81
2021/12/22 00:13:46;;;;;;;3.85;2.13;;;-8.50;99.90;;;;;;5031932;28;20468;-80
2021/12/22 00:16:13;;;;;;;6.70;3.20;;;-8.40;99.90;;;;;;5046240;28;20046;-79
2021/12/22 00:18:40;;;;;;;3.33;2.40;;;-8.50;99.90;;;;;;5049732;28;20072;-79
2021/12/22 00:21:08;;;;;;;5.78;3.05;;;-8.50;99.90;;;;;;5032263;28;20041;-79
2021/12/22 00:23:36;;;;;;;7.03;3.35;;;-8.40;99.90;;;;;;5030463;28;20563;-79
2021/12/22 00:26:03;;;;;;;4.28;3.10;;;-8.40;99.90;;;;;;5033811;28;20418;-79
2021/12/22 00:28:32;;;;;;;7.43;2.85;;;-8.30;99.90;;;;;;5034755;28;20064;-79
2021/12/22 00:31:11;;;;;;;10.27;3.92;;;-8.20;99.90;;;;;;5032936;28;20037;-80
2021/12/22 00:33:46;;;;;;;8.38;4.28;;;-8.20;99.90;;;;;;5033528;28;20053;-78
2021/12/22 00:36:14;;;;;;;8.27;4.22;;;-8.10;99.90;;;;;;5034084;28;21022;-79
2021/12/22 00:38:42;;;;;;;9.25;3.33;;;-8.10;99.90;;;;;;5016165;28;20096;-79
2021/12/22 00:41:09;;;;;;;5.28;3.22;;;-8.00;99.90;;;;;;5033397;28;20448;-80
2021/12/22 00:43:36;;;;;;;10.20;4.13;;;-8.00;99.90;;;;;;5033692;28;20091;-80
2021/12/22 00:46:06;;;;;;;4.47;3.10;;;-8.00;99.90;;;;;;5033580;28;20144;-80
2021/12/22 00:48:33;;;;;;;5.72;2.78;;;-8.00;99.90;;;;;;5040915;28;20037;-80
2021/12/22 00:51:02;;;;;;;5.43;2.83;;;-8.00;99.90;;;;;;5038921;28;20057;-80
2021/12/22 00:53:29;;;;;;;5.32;2.65;;;-8.10;99.90;;;;;;5016166;28;20056;-79
2021/12/22 00:55:57;;;;;;;6.57;2.85;;;-8.10;99.90;;;;;;5032098;28;20053;-79
2021/12/22 00:58:25;;;;;;;6.53;3.05;;;-8.00;99.90;;;;;;5033988;28;20523;-79
2021/12/22 01:00:52;;;;;;;4.60;2.40;;;-8.00;99.90;;;;;;5033355;28;20057;-79
2021/12/22 01:03:22;;;;;;;4.63;2.85;;;-8.10;99.90;;;;;;5033538;28;20051;-80
2021/12/22 01:05:49;;;;;;;6.55;3.05;;;-8.10;99.90;;;;;;5033796;28;20057;-80
2021/12/22 01:08:17;;;;;;;5.45;3.42;;;-8.20;99.90;;;;;;5034612;28;20441;-80
2021/12/22 01:10:45;;;;;;;4.65;2.85;;;-8.30;99.90;;;;;;5022498;28;20049;-81
2021/12/22 01:13:13;;;;;;;3.92;2.80;;;-8.40;99.90;;;;;;5033854;28;20060;-79
2021/12/22 01:15:41;;;;;;;5.90;3.20;;;-8.50;99.90;;;;;;5032771;28;20072;-80
2021/12/22 01:18:14;;;;;;;4.85;2.70;;;-8.50;99.90;;;;;;5031034;28;20049;-79
2021/12/22 01:21:02;;;;;;;5.18;2.38;;;-8.60;99.90;;;;;;5031122;28;20134;-81
2021/12/22 01:23:34;;;;;;;6.75;2.67;;;-8.60;99.90;;;;;;5033502;28;20057;-80
2021/12/22 01:26:03;;;;;;;3.50;2.22;;;-8.60;99.90;;;;;;5047863;28;20056;-81
2021/12/22 01:28:32;;;;;;;6.72;2.45;;;-8.60;99.90;;;;;;5043921;28;20415;-79
2021/12/22 01:31:01;;;;;;;3.85;1.92;;;-8.60;99.90;;;;;;5023105;28;20064;-79
2021/12/22 01:33:29;;;;;;;3.95;2.10;;;-8.60;99.90;;;;;;5032937;28;20509;-79
2021/12/22 01:35:57;;;;;;;4.38;2.30;;;-8.50;99.90;;;;;;5013779;28;20068;-79
2021/12/22 01:38:25;;;;;;;4.07;3.00;;;-8.50;99.90;;;;;;5032031;28;20458;-78
2021/12/22 01:40:55;;;;;;;6.28;2.42;;;-8.50;99.90;;;;;;5036298;28;20055;-79
2021/12/22 01:43:41;;;;;;;5.10;2.25;;;-8.50;99.90;;;;;;5039609;28;20485;-78
2021/12/22 01:49:09;;;;;;;5.15;2.80;;;-8.50;99.90;;;;;;5032301;28;20123;-79
2021/12/22 01:49:53;;;;;;;4.50;3.17;;;-8.50;99.90;;;;;;5043494;28;20045;-79
2021/12/22 01:52:31;;;;;;;7.07;2.47;;;-8.70;99.90;;;;;;5024588;28;20050;-76
2021/12/22 01:55:33;;;;;;;4.20;2.40;;;-8.80;99.90;;;;;;5045669;28;20053;-76
2021/12/22 01:58:02;;;;;;;5.45;2.70;;;-8.90;99.90;;;;;;5032524;28;20058;-77
2021/12/22 02:00:30;;;;;;;3.72;2.47;;;-8.90;99.90;;;;;;5030776;28;20041;-76
2021/12/22 02:02:58;;;;;;;2.80;2.08;;;-9.00;99.90;;;;;;5029008;28;20485;-76
2021/12/22 02:05:26;;;;;;;2.33;2.10;;;-9.00;99.90;;;;;;5035156;28;20048;-76
2021/12/22 02:08:00;;;;;;;6.85;2.70;;;-9.00;99.90;;;;;;5053400;28;20049;-76
2021/12/22 02:10:39;;;;;;;3.28;2.90;;;-9.00;99.90;;;;;;5039228;28;20524;-76
2021/12/22 02:13:08;;;;;;;5.63;2.70;;;-8.90;99.90;;;;;;5041565;28;20042;-76
2021/12/22 02:15:36;;;;;;;7.20;2.85;;;-8.80;99.90;;;;;;5031674;28;20037;-76
2021/12/22 02:18:04;;;;;;;5.00;2.35;;;-8.70;99.90;;;;;;5032104;28;20057;-76
2021/12/22 02:20:33;;;;;;;2.08;1.77;;;-8.60;99.90;;;;;;5029945;28;20052;-77
2021/12/22 02:23:01;;;;;;;4.10;2.58;;;-8.50;99.90;;;;;;5032159;28;20517;-76
2021/12/22 02:25:35;;;;;;;6.70;2.58;;;-8.40;99.90;;;;;;5029974;28;20080;-75
2021/12/22 02:28:06;;;;;;;4.45;2.83;;;-8.30;99.90;;;;;;5032027;28;20045;-76
2021/12/22 02:30:34;;;;;;;5.65;3.00;;;-8.20;99.90;;;;;;5029024;28;20053;-76
2021/12/22 02:33:22;;;;;;;2.90;2.30;;;-8.20;99.90;;;;;;5023737;28;20079;-76
2021/12/22 02:36:20;;;;;;;6.72;3.25;;;-8.20;99.90;;;;;;5029438;28;20135;-77
2021/12/22 02:38:51;;;;;;;6.32;2.90;;;-8.10;99.90;;;;;;5029118;28;20061;-76
2021/12/22 02:41:25;;;;;;;4.82;2.95;;;-8.10;99.90;;;;;;5047054;28;20057;-76
2021/12/22 02:43:54;;;;;;;7.10;3.33;;;-8.20;99.90;;;;;;5013478;28;20067;-76
2021/12/22 02:46:24;;;;;;;3.45;2.60;;;-8.30;99.90;;;;;;5030247;28;20084;-76
2021/12/22 02:48:53;;;;;;;7.47;3.40;;;-8.40;99.90;;;;;;5046451;28;20053;-75
2021/12/22 02:51:23;;;;;;;4.25;2.47;;;-8.40;99.90;;;;;;5031685;28;20038;-76
2021/12/22 02:54:03;;;;;;;4.22;2.70;;;-8.50;99.90;;;;;;5047247;28;20057;-76
2021/12/22 02:56:37;;;;;;;3.50;2.90;;;-8.50;99.90;;;;;;5031372;28;20517;-75
2021/12/22 02:59:31;;;;;;;4.10;2.30;;;-8.50;99.90;;;;;;5029747;28;20072;-76
2021/12/22 03:02:21;;;;;;;7.75;2.47;;;-8.50;99.90;;;;;;5031027;28;20049;-76
2021/12/22 03:04:55;;;;;;;4.13;2.08;;;-8.60;99.90;;;;;;5046511;28;20053;-77
2021/12/22 03:07:28;;;;;;;4.43;2.60;;;-8.60;99.90;;;;;;5036068;28;20045;-76
2021/12/22 03:10:00;;;;;;;5.43;2.17;;;-8.70;99.90;;;;;;5031866;28;20534;-76
2021/12/22 03:12:32;;;;;;;7.45;2.72;;;-8.80;99.90;;;;;;5022662;28;20065;-77
2021/12/22 03:15:00;;;;;;;7.28;2.70;;;-8.90;99.90;;;;;;5029173;28;20408;-77
2021/12/22 03:17:28;;;;;;;5.93;3.05;;;-8.90;99.90;;;;;;5030564;28;20052;-77
2021/12/22 03:19:55;;;;;;;11.27;3.58;;;-8.80;99.90;;;;;;5030786;28;20045;-76
2021/12/22 03:22:24;;;;;;;8.13;3.17;;;-8.70;99.90;;;;;;5031111;28;20096;-77
2021/12/22 03:24:52;;;;;;;7.75;3.15;;;-8.60;99.90;;;;;;5038173;28;20045;-77
2021/12/22 03:27:20;;;;;;;7.82;3.35;;;-8.50;99.90;;;;;;5049954;28;20044;-79
2021/12/22 03:29:48;;;;;;;4.93;3.05;;;-8.40;99.90;;;;;;5041593;28;20041;-79
2021/12/22 03:32:16;;;;;;;7.65;2.85;;;-8.40;99.90;;;;;;5031351;28;20068;-81
2021/12/22 03:34:44;;;;;;;6.60;3.72;;;-8.40;99.90;;;;;;5045232;28;20069;-79
2021/12/22 03:37:14;;;;;;;6.40;3.60;;;-8.50;99.90;;;;;;5030061;28;20056;-79
2021/12/22 03:39:43;;;;;;;14.52;5.05;;;-8.60;99.90;;;;;;5037731;28;20505;-80
2021/12/22 03:42:13;;;;;;;6.95;2.97;;;-8.60;99.90;;;;;;5029796;28;20052;-78
2021/12/22 03:44:41;;;;;;;4.88;2.58;;;-8.60;99.90;;;;;;5031210;28;20092;-79
2021/12/22 03:47:09;;;;;;;5.32;3.08;;;-8.60;99.90;;;;;;5030888;28;20436;-80
2021/12/22 03:49:37;;;;;;;5.38;2.72;;;-8.50;99.90;;;;;;5030664;28;20053;-80
2021/12/22 03:52:06;;;;;;;6.05;3.05;;;-8.40;99.90;;;;;;5029882;28;20072;-80
2021/12/22 03:54:35;;;;;;;3.88;2.63;;;-8.40;99.90;;;;;;5031630;28;20111;-79
2021/12/22 03:57:05;;;;;;;7.82;3.08;;;-8.30;99.90;;;;;;5036341;28;20108;-80
2021/12/22 03:59:32;;;;;;;4.63;3.13;;;-8.30;99.90;;;;;;5013050;28;20073;-80
2021/12/22 04:01:59;;;;;;;7.40;3.83;;;-8.30;99.90;;;;;;5029689;28;20421;-80
2021/12/22 04:04:27;;;;;;;6.95;3.50;;;-8.30;99.90;;;;;;5033332;28;20053;-80
2021/12/22 04:06:55;;;;;;;6.60;3.22;;;-8.20;99.90;;;;;;5043405;28;20402;-80
2021/12/22 04:09:27;;;;;;;6.07;3.22;;;-8.20;99.90;;;;;;5034833;28;20053;-81
2021/12/22 04:11:55;;;;;;;4.90;2.90;;;-8.20;99.90;;;;;;5030927;28;20046;-81
2021/12/22 04:14:24;;;;;;;4.20;3.05;;;-8.30;99.90;;;;;;5028380;28;20053;-80
2021/12/22 04:16:52;;;;;;;6.63;3.05;;;-8.50;99.90;;;;;;5018102;28;20051;-81
2021/12/22 04:19:19;;;;;;;4.22;3.08;;;-8.50;99.90;;;;;;5032864;28;20108;-81
2021/12/22 04:21:48;;;;;;;4.20;2.60;;;-8.60;99.90;;;;;;5034093;28;20525;-80
2021/12/22 04:24:17;;;;;;;4.88;3.03;;;-8.70;99.90;;;;;;5030286;28;20140;-81
2021/12/22 04:26:44;;;;;;;5.53;2.80;;;-8.80;99.90;;;;;;5032095;28;20046;-80
2021/12/22 04:29:12;;;;;;;4.75;2.65;;;-8.90;99.90;;;;;;5035234;28;20632;-80
2021/12/22 04:31:41;;;;;;;4.43;2.80;;;-8.90;99.90;;;;;;5036159;28;20409;-81
2021/12/22 04:34:09;;;;;;;5.85;2.80;;;-9.00;99.90;;;;;;5034567;28;20045;-85
2021/12/22 04:36:37;;;;;;;3.75;2.90;;;-9.00;99.90;;;;;;5040816;28;20041;-84
2021/12/22 04:39:07;;;;;;;4.80;2.90;;;-9.00;99.90;;;;;;5042161;28;20085;-87
2021/12/22 04:41:34;;;;;;;7.82;3.33;;;-9.10;99.90;;;;;;5023326;28;20509;-83
2021/12/22 04:44:03;;;;;;;6.18;2.58;;;-9.10;99.90;;;;;;5034215;28;20044;-83
2021/12/22 04:46:31;;;;;;;5.63;3.13;;;-9.10;99.90;;;;;;5037472;28;20076;-78
2021/12/22 04:49:04;;;;;;;5.20;3.33;;;-9.10;99.90;;;;;;5034494;28;20057;-81
2021/12/22 04:51:34;;;;;;;7.95;3.08;;;-9.10;99.90;;;;;;5032287;28;20431;-82
2021/12/22 04:54:06;;;;;;;4.57;2.75;;;-9.10;99.90;;;;;;5035150;28;20505;-82
2021/12/22 04:56:34;;;;;;;7.95;3.20;;;-9.10;99.90;;;;;;5038769;28;20053;-82
2021/12/22 04:59:01;;;;;;;5.72;3.22;;;-9.00;99.90;;;;;;5038166;28;20054;-81
2021/12/22 05:01:29;;;;;;;5.30;3.00;;;-9.00;99.90;;;;;;5031571;28;20370;-81
2021/12/22 05:03:56;;;;;;;5.47;3.80;;;-8.80;99.90;;;;;;5039344;28;20085;-84
2021/12/22 05:06:26;;;;;;;6.22;3.63;;;-8.70;99.90;;;;;;5022829;28;20143;-83
2021/12/22 05:08:54;;;;;;;6.00;3.88;;;-8.60;99.90;;;;;;5042810;28;20045;-83
2021/12/22 05:11:21;;;;;;;3.67;2.80;;;-8.50;99.90;;;;;;5033312;28;20056;-83
2021/12/22 05:13:52;;;;;;;4.13;3.10;;;-8.40;99.90;;;;;;5015504;28;20073;-83
2021/12/22 05:16:19;;;;;;;7.40;4.03;;;-8.40;99.90;;;;;;5040142;28;20144;-83
2021/12/22 05:18:57;;;;;;;8.82;3.53;;;-8.30;99.90;;;;;;5042092;28;20128;-81
2021/12/22 05:21:27;;;;;;;6.40;3.75;;;-8.30;99.90;;;;;;5049202;28;20065;-81
2021/12/22 05:23:55;;;;;;;6.70;3.58;;;-8.20;99.90;;;;;;5033891;28;20054;-81
2021/12/22 05:26:25;;;;;;;8.07;3.05;;;-8.20;99.90;;;;;;5033134;28;20053;-74
2021/12/22 05:28:54;;;;;;;9.38;3.80;;;-8.10;99.90;;;;;;5032456;28;20072;-74
2021/12/22 05:31:22;;;;;;;6.57;3.17;;;-8.10;99.90;;;;;;5038974;28;20136;-75
2021/12/22 05:33:50;;;;;;;7.22;2.78;;;-8.10;99.90;;;;;;5068329;28;20053;-75
2021/12/22 05:36:20;;;;;;;5.90;3.83;;;-8.10;99.90;;;;;;5015606;28;20073;-74
2021/12/22 05:38:55;;;;;;;7.10;3.22;;;-8.10;99.90;;;;;;5017592;28;20434;-84
2021/12/22 05:41:22;;;;;;;8.63;4.00;;;-8.10;99.90;;;;;;5026092;28;20050;-82
2021/12/22 05:43:50;;;;;;;6.55;3.15;;;-8.10;99.90;;;;;;5031791;28;20041;-82
2021/12/22 05:46:19;;;;;;;6.53;4.30;;;-8.10;99.90;;;;;;5012736;28;20116;-82
2021/12/22 05:48:48;;;;;;;10.02;3.83;;;-8.20;99.90;;;;;;5038042;28;20628;-80
2021/12/22 05:51:16;;;;;;;8.63;4.03;;;-8.20;99.90;;;;;;5029943;28;20103;-81
2021/12/22 05:53:51;;;;;;;6.93;4.00;;;-8.10;99.90;;;;;;5039390;28;20049;-81
2021/12/22 05:56:19;;;;;;;8.13;3.20;;;-8.10;99.90;;;;;;5036642;28;20111;-78
2021/12/22 05:58:52;;;;;;;8.13;4.43;;;-8.10;99.90;;;;;;5031880;28;20099;-78
2021/12/22 06:01:20;;;;;;;12.80;4.43;;;-8.00;99.90;;;;;;5032794;28;20409;-81
2021/12/22 06:03:50;;;;;;;5.93;4.40;;;-7.90;99.90;;;;;;5033118;28;20464;-81
2021/12/22 06:06:18;;;;;;;9.57;3.45;;;-7.90;99.90;;;;;;5047448;28;20121;-81
2021/12/22 06:08:45;;;;;;;4.97;2.72;;;-7.90;99.90;;;;;;5031212;28;20045;-81
2021/12/22 06:11:14;;;;;;;7.15;3.40;;;-7.90;99.90;;;;;;5048672;28;20060;-81
2021/12/22 06:13:42;;;;;;;7.35;3.70;;;-8.00;99.90;;;;;;5032922;28;20257;-77
2021/12/22 06:16:10;;;;;;;6.63;3.28;;;-8.10;99.90;;;;;;5030797;28;20045;-78
2021/12/22 06:18:43;;;;;;;6.30;2.90;;;-8.20;99.90;;;;;;5032619;28;20054;-77
2021/12/22 06:21:12;;;;;;;9.60;3.40;;;-8.20;99.90;;;;;;5032523;28;20497;-81
2021/12/22 06:23:41;;;;;;;6.93;3.45;;;-8.40;99.90;;;;;;5046711;28;20045;-77
2021/12/22 06:26:09;;;;;;;5.25;3.38;;;-8.50;99.90;;;;;;5028461;28;20103;-80
2021/12/22 06:28:37;;;;;;;6.57;3.53;;;-8.60;99.90;;;;;;5031119;28;20492;-78
2021/12/22 06:31:06;;;;;;;5.40;2.70;;;-8.70;99.90;;;;;;5026069;28;20532;-79
2021/12/22 06:33:34;;;;;;;5.88;2.67;;;-8.80;99.90;;;;;;5030217;28;20059;-76
2021/12/22 06:36:05;;;;;;;10.30;3.38;;;-8.80;99.90;;;;;;5011503;28;20249;-78
2021/12/22 06:38:33;;;;;;;5.93;3.17;;;-8.70;99.90;;;;;;5031021;28;20076;-78
2021/12/22 06:41:02;;;;;;;8.13;3.30;;;-8.70;99.90;;;;;;5045666;28;20119;-77
2021/12/22 06:43:30;;;;;;;4.75;2.90;;;-8.60;99.90;;;;;;5044475;28;20303;-76
2021/12/22 06:45:59;;;;;;;5.38;3.40;;;-8.60;99.90;;;;;;5030117;28;20049;-76
2021/12/22 06:48:27;;;;;;;9.52;4.80;;;-8.70;99.90;;;;;;5026889;28;20045;-77
2021/12/22 06:50:54;;;;;;;11.35;5.78;;;-8.70;99.90;;;;;;5030557;28;20422;-76
2021/12/22 06:53:25;;;;;;;13.52;6.47;;;-8.80;99.90;;;;;;5036561;28;20041;-77
2021/12/22 06:55:53;;;;;;;12.65;5.68;;;-8.90;99.90;;;;;;5031862;28;20057;-78
2021/12/22 06:58:20;;;;;;;11.93;5.00;;;-9.00;99.90;;;;;;5028942;28;20050;-76
2021/12/22 07:00:49;;;;;;;12.68;5.32;;;-9.10;99.90;;;;;;5031359;28;20053;-78
2021/12/22 07:03:18;;;;;;;9.23;4.45;;;-9.10;99.90;;;;;;5030009;28;20041;-76
2021/12/22 07:05:45;;;;;;;7.75;4.60;;;-9.20;99.90;;;;;;5028589;28;20052;-75
2021/12/22 07:08:13;;;;;;;11.30;5.18;;;-9.20;99.90;;;;;;5030016;28;20132;-74
2021/12/22 07:10:40;;;;;;;9.43;4.50;;;-9.20;99.90;;;;;;5029703;28;20132;-76
2021/12/22 07:13:08;;;;;;;8.52;5.03;;;-9.20;99.90;;;;;;5046370;28;20073;-74
2021/12/22 07:15:36;;;;;;;8.18;5.00;;;-9.30;99.90;;;;;;5030977;28;20563;-75
2021/12/22 07:18:08;;;;;;;9.43;4.88;;;-9.20;99.90;;;;;;5030285;28;20063;-76
2021/12/22 07:20:37;;;;;;;8.00;4.10;;;-9.20;99.90;;;;;;5029741;28;20149;-76
2021/12/22 07:23:05;;;;;;;9.38;4.40;;;-9.20;99.90;;;;;;5029824;28;20045;-77
2021/12/22 07:25:32;;;;;;;12.80;4.75;;;-9.30;99.90;;;;;;5030989;28;20261;-77
2021/12/22 07:28:00;;;;;;;8.50;4.97;;;-9.30;99.90;;;;;;5031166;28;20141;-77
2021/12/22 07:30:28;;;;;;;9.05;4.85;;;-9.30;99.90;;;;;;5030674;28;20398;-75
2021/12/22 07:32:55;;;;;;;10.68;4.05;;;-9.20;99.90;;;;;;5023767;28;20049;-77
2021/12/22 07:35:30;;;;;;;16.38;5.10;;;-9.30;99.90;;;;;;5030078;28;20053;-76
2021/12/22 07:38:13;;;;;;;8.07;4.80;;;-9.30;99.90;;;;;;5028506;28;20052;-77
2021/12/22 07:40:40;;;;;;;6.27;4.50;;;-9.30;99.90;;;;;;5031578;28;20053;-77
2021/12/22 07:43:07;;;;;;;9.88;4.57;;;-9.30;99.90;;;;;;5028627;28;20037;-77
2021/12/22 07:45:35;;;;;;;11.50;5.03;;;-9.30;99.90;;;;;;5030101;28;20076;-76
2021/12/22 07:48:02;;;;;;;7.22;5.13;;;-9.30;99.90;;;;;;5030583;28;20494;-77
2021/12/22 07:50:30;;;;;;;15.48;5.30;;;-9.30;99.90;;;;;;5028887;28;20077;-76
2021/12/22 07:52:58;;;;;;;13.32;5.13;;;-9.30;99.90;;;;;;5028918;28;20069;-76
2021/12/22 07:55:26;;;;;;;12.95;5.65;;;-9.30;99.90;;;;;;5029765;28;20614;-75
2021/12/22 07:57:53;;;;;;;15.10;7.38;;;-9.30;99.90;;;;;;5029578;28;20521;-76
2021/12/22 08:00:21;;;;;;;20.55;9.68;;;-9.30;99.90;;;;;;5030249;28;20472;-76
2021/12/22 08:02:48;;;;;;;24.40;12.45;;;-9.30;99.90;;;;;;5030112;28;20042;-75
2021/12/22 08:05:16;;;;;;;29.77;10.63;;;-9.30;99.90;;;;;;5029891;28;20100;-76
2021/12/22 08:07:44;;;;;;;14.95;8.85;;;-9.30;99.90;;;;;;5029985;28;20306;-76
2021/12/22 08:10:13;;;;;;;24.88;9.98;;;-9.30;99.90;;;;;;5029281;28;20522;-75
2021/12/22 08:12:43;;;;;;;16.58;8.32;;;-9.30;99.90;;;;;;5029948;28;20041;-77
2021/12/22 08:15:10;;;;;;;20.23;8.23;;;-9.20;99.90;;;;;;5030217;28;20076;-76
2021/12/22 08:17:38;;;;;;;17.05;7.68;;;-9.10;99.90;;;;;;5030008;28;20053;-79
2021/12/22 08:20:07;;;;;;;14.80;7.05;;;-9.00;99.90;;;;;;5027931;28;20101;-77
2021/12/22 08:22:34;;;;;;;14.57;6.63;;;-8.90;99.90;;;;;;5029666;28;20048;-77
2021/12/22 08:25:02;;;;;;;13.52;6.90;;;-8.70;99.90;;;;;;5029951;28;20061;-77
2021/12/22 08:27:31;;;;;;;13.55;6.22;;;-8.50;99.90;;;;;;5029157;28;20049;-78
2021/12/22 08:29:59;;;;;;;19.63;6.90;;;-8.40;99.90;;;;;;5033022;28;20058;-77
2021/12/22 08:32:26;;;;;;;13.68;7.07;;;-8.20;99.90;;;;;;5033771;28;20132;-77
2021/12/22 08:34:55;;;;;;;17.52;6.63;;;-8.00;99.90;;;;;;5033285;28;20085;-77
2021/12/22 08:40:14;;;;;;;9.18;5.05;;;-7.70;99.90;;;;;;5032168;28;20148;-77
2021/12/22 08:42:44;;;;;;;7.03;3.50;;;-7.50;99.90;;;;;;5033272;28;20147;-79
2021/12/22 08:45:14;;;;;;;14.98;5.68;;;-7.30;99.90;;;;;;5031669;28;20052;-77
2021/12/22 08:47:42;;;;;;;10.10;3.85;;;-7.20;99.90;;;;;;5046724;28;20038;-78
2021/12/22 08:50:13;;;;;;;3.50;2.35;;;-7.10;99.90;;;;;;5031594;28;20144;-75
2021/12/22 08:52:40;;;;;;;5.93;3.75;;;-6.90;99.90;;;;;;5031510;28;20494;-76
2021/12/22 08:55:10;;;;;;;15.23;4.28;;;-6.90;99.90;;;;;;5032997;28;20045;-75
2021/12/22 08:57:38;;;;;;;6.40;3.08;;;-6.90;99.90;;;;;;5048488;28;20057;-76
2021/12/22 09:00:10;;;;;;;6.65;3.83;;;-6.90;99.90;;;;;;5033134;28;20049;-76
2021/12/22 09:02:38;;;;;;;19.60;4.32;;;-7.00;99.90;;;;;;5033681;28;20083;-76
2021/12/22 09:05:07;;;;;;;8.65;3.65;;;-7.10;99.90;;;;;;5033214;28;20080;-75
2021/12/22 09:07:35;;;;;;;8.75;4.47;;;-7.10;99.90;;;;;;5031761;28;20049;-78
2021/12/22 09:10:04;;;;;;;7.85;5.03;;;-7.00;99.90;;;;;;5031578;28;20041;-79
2021/12/22 09:12:31;;;;;;;8.90;4.93;;;-6.80;99.90;;;;;;5033387;28;20080;-77
2021/12/22 09:14:59;;;;;;;8.25;4.82;;;-6.70;99.90;;;;;;5032997;28;20053;-79
2021/12/22 09:17:28;;;;;;;8.98;4.38;;;-6.60;99.90;;;;;;5031658;28;20132;-79
2021/12/22 09:19:56;;;;;;;7.28;4.32;;;-6.50;99.90;;;;;;5032854;28;20061;-77
2021/12/22 09:22:24;;;;;;;10.00;5.45;;;-6.40;99.90;;;;;;5031669;28;20037;-77
2021/12/22 09:24:52;;;;;;;9.60;4.45;;;-6.40;99.90;;;;;;5015157;28;20049;-78
2021/12/22 09:27:20;;;;;;;10.27;4.00;;;-6.40;99.90;;;;;;5032856;28;20528;-78
2021/12/22 09:29:47;;;;;;;6.00;3.85;;;-6.40;99.90;;;;;;5032813;28;20068;-78
2021/12/22 09:32:17;;;;;;;7.18;3.80;;;-6.40;99.90;;;;;;5032900;28;20048;-78
2021/12/22 09:34:46;;;;;;;8.30;4.25;;;-6.40;99.90;;;;;;5032967;28;20084;-78
2021/12/22 09:37:14;;;;;;;7.75;4.57;;;-6.40;99.90;;;;;;5033114;28;20460;-79
2021/12/22 09:39:41;;;;;;;5.07;3.72;;;-6.30;99.90;;;;;;5032101;28;20596;-78
2021/12/22 09:42:10;;;;;;;8.75;3.92;;;-6.30;99.90;;;;;;5047704;28;20133;-76
2021/12/22 09:44:44;;;;;;;8.88;4.05;;;-6.20;99.90;;;;;;5032689;28;20100;-77
2021/12/22 09:47:12;;;;;;;10.98;4.10;;;-6.20;99.90;;;;;;5032373;28;20045;-79
2021/12/22 09:50:06;;;;;;;7.63;4.10;;;-6.10;99.90;;;;;;5032390;28;20045;-78
2021/12/22 09:52:35;;;;;;;8.38;3.63;;;-6.10;99.90;;;;;;5032184;28;20105;-79
2021/12/22 09:55:03;;;;;;;7.53;4.80;;;-6.20;99.90;;;;;;5047769;28;20049;-78
2021/12/22 09:57:32;;;;;;;7.30;4.15;;;-6.20;99.90;;;;;;5032410;28;20045;-78
2021/12/22 10:00:01;;;;;;;6.47;3.40;;;-6.30;99.90;;;;;;5032254;28;20148;-78
2021/12/22 10:02:31;;;;;;;6.30;3.37;;;-6.20;99.90;;;;;;5047279;28;20041;-77
2021/12/22 10:05:01;;;;;;;6.90;3.92;;;-6.10;99.90;;;;;;5032202;28;20626;-78
2021/12/22 10:07:31;;;;;;;4.78;2.88;;;-6.10;99.90;;;;;;5032002;28;20470;-78
2021/12/22 10:10:08;;;;;;;5.75;3.25;;;-6.00;99.90;;;;;;5032181;28;20077;-78
2021/12/22 10:12:36;;;;;;;7.95;3.88;;;-5.90;99.90;;;;;;5032288;28;20508;-78
2021/12/22 10:15:07;;;;;;;5.97;4.13;;;-5.90;99.90;;;;;;5031640;28;20091;-77
2021/12/22 10:17:39;;;;;;;7.32;3.88;;;-5.90;99.90;;;;;;5032177;28;20502;-78
2021/12/22 10:20:10;;;;;;;8.05;4.32;;;-5.90;99.90;;;;;;5031595;28;20053;-78
2021/12/22 10:22:41;;;;;;;5.95;3.30;;;-5.90;99.90;;;;;;5031927;28;20057;-79
2021/12/22 10:25:15;;;;;;;11.00;4.43;;;-5.90;99.90;;;;;;5032044;28;20068;-79
2021/12/22 10:27:45;;;;;;;11.57;4.30;;;-5.90;99.90;;;;;;5031713;28;20469;-78
2021/12/22 10:30:33;;;;;;;8.07;4.38;;;-6.00;99.90;;;;;;5032002;28;20421;-78
2021/12/22 10:33:12;;;;;;;5.65;3.30;;;-6.00;99.90;;;;;;5031734;28;20103;-79
2021/12/22 10:35:41;;;;;;;8.48;3.38;;;-6.00;99.90;;;;;;5031382;28;20056;-78
2021/12/22 10:38:11;;;;;;;6.40;3.60;;;-5.90;99.90;;;;;;5031826;28;20045;-78
2021/12/22 10:40:43;;;;;;;7.45;3.05;;;-5.90;99.90;;;;;;5012442;28;20046;-79
2021/12/22 10:43:19;;;;;;;10.68;3.92;;;-5.80;99.90;;;;;;5022887;28;20049;-79
2021/12/22 10:45:50;;;;;;;6.18;3.95;;;-5.80;99.90;;;;;;5029856;28;20053;-79
2021/12/22 10:51:11;;;;;;;8.95;4.28;;;-5.80;99.90;;;;;;5029681;28;20046;-79
2021/12/22 10:53:44;;;;;;;8.25;4.72;;;-5.80;99.90;;;;;;5030552;28;20048;-80
2021/12/22 10:56:28;;;;;;;11.40;4.82;;;-5.80;99.90;;;;;;5046369;28;20080;-79
2021/12/22 10:59:07;;;;;;;7.93;4.45;;;-5.90;99.90;;;;;;5012691;28;20049;-81
2021/12/22 11:01:36;;;;;;;12.40;4.43;;;-5.90;99.90;;;;;;5029951;28;20151;-78
2021/12/22 11:04:14;;;;;;;7.28;4.20;;;-5.90;99.90;;;;;;5029691;28;20077;-79
2021/12/22 11:06:42;;;;;;;9.48;4.47;;;-5.90;99.90;;;;;;5044750;28;20057;-77
2021/12/22 11:09:14;;;;;;;9.88;4.10;;;-6.00;99.90;;;;;;5031211;28;20073;-77
2021/12/22 11:11:46;;;;;;;6.95;3.88;;;-6.00;99.90;;;;;;5030752;28;20050;-78
2021/12/22 11:14:19;;;;;;;6.47;4.32;;;-6.00;99.90;;;;;;5031037;28;20081;-79
2021/12/22 11:17:06;;;;;;;11.10;4.80;;;-6.00;99.90;;;;;;5029606;28;20056;-78
2021/12/22 11:19:36;;;;;;;7.57;3.88;;;-6.10;99.90;;;;;;5030414;28;20089;-78
2021/12/22 11:22:11;;;;;;;8.73;4.97;;;-6.20;99.90;;;;;;5031051;28;20055;-79
2021/12/22 11:24:43;;;;;;;11.27;5.15;;;-6.20;99.90;;;;;;5030193;28;20144;-78
2021/12/22 11:27:15;;;;;;;11.83;4.93;;;-6.20;99.90;;;;;;5025928;28;20438;-79
2021/12/22 11:29:46;;;;;;;13.52;4.82;;;-6.30;99.90;;;;;;5029663;28;20054;-80
2021/12/22 11:32:17;;;;;;;12.52;4.72;;;-6.20;99.90;;;;;;5012680;28;20151;-79
2021/12/22 11:34:51;;;;;;;8.07;4.25;;;-6.30;99.90;;;;;;5029178;28;20410;-78
2021/12/22 11:37:21;;;;;;;7.65;4.20;;;-6.20;99.90;;;;;;5029253;28;20060;-81
2021/12/22 11:39:49;;;;;;;11.70;4.60;;;-6.20;99.90;;;;;;5030184;28;20410;-79
2021/12/22 11:42:21;;;;;;;8.98;4.47;;;-6.20;99.90;;;;;;5030523;28;20083;-79
2021/12/22 11:44:54;;;;;;;9.30;4.30;;;-6.30;99.90;;;;;;5030126;28;20152;-76
2021/12/22 11:47:22;;;;;;;10.00;4.03;;;-6.30;99.90;;;;;;5029108;28;20525;-77
2021/12/22 11:49:55;;;;;;;15.60;6.78;;;-6.30;99.90;;;;;;5030202;28;20124;-78
2021/12/22 11:52:37;;;;;;;8.57;4.43;;;-6.30;99.90;;;;;;5029703;28;20049;-77
2021/12/22 11:55:17;;;;;;;8.65;4.70;;;-6.30;99.90;;;;;;5009198;28;20506;-79
2021/12/22 11:57:49;;;;;;;9.68;4.30;;;-6.40;99.90;;;;;;5010852;28;20057;-78
2021/12/22 12:00:25;;;;;;;12.63;4.95;;;-6.40;99.90;;;;;;5028395;28;20132;-78
2021/12/22 12:02:54;;;;;;;11.60;4.97;;;-6.40;99.90;;;;;;5028551;28;20505;-79
2021/12/22 12:05:24;;;;;;;7.00;3.67;;;-6.50;99.90;;;;;;5030492;28;20041;-79
2021/12/22 12:07:54;;;;;;;8.68;4.32;;;-6.50;99.90;;;;;;5045049;28;20634;-79
2021/12/22 12:10:51;;;;;;;11.73;4.03;;;-6.60;99.90;;;;;;5030078;28;20065;-77
2021/12/22 12:13:49;;;;;;;9.25;4.20;;;-6.60;99.90;;;;;;5030305;28;20069;-78
2021/12/22 12:22:33;;;;;;;15.13;4.70;;;-6.80;99.90;;;;;;5028369;28;20084;-77
2021/12/22 12:25:15;;;;;;;13.20;5.38;;;-6.80;99.90;;;;;;5030022;28;20104;-78
2021/12/22 12:27:52;;;;;;;15.80;5.93;;;-6.90;99.90;;;;;;5027467;28;20049;-79
2021/12/22 12:30:42;;;;;;;13.25;5.05;;;-7.00;99.90;;;;;;5029034;28;20122;-80
2021/12/22 12:33:28;;;;;;;12.75;5.20;;;-7.00;99.90;;;;;;5029938;28;20045;-79
2021/12/22 12:36:10;;;;;;;9.23;5.10;;;-7.20;99.90;;;;;;5029290;28;20053;-79
2021/12/22 12:38:50;;;;;;;13.15;4.45;;;-7.30;99.90;;;;;;5028687;28;20084;-78
2021/12/22 12:41:27;;;;;;;12.70;5.55;;;-7.40;99.90;;;;;;5028513;28;20053;-80
2021/12/22 12:44:08;;;;;;;11.20;5.45;;;-7.40;99.90;;;;;;5029976;28;20057;-79
2021/12/22 12:46:48;;;;;;;8.43;4.07;;;-7.40;99.90;;;;;;5029756;28;20449;-79
2021/12/22 12:49:44;;;;;;;7.13;4.13;;;-7.50;99.90;;;;;;5030237;28;20136;-80
2021/12/22 12:52:25;;;;;;;13.85;5.30;;;-7.50;99.90;;;;;;5028064;28;20509;-74
2021/12/22 12:55:13;;;;;;;13.73;4.55;;;-7.50;99.90;;;;;;5028250;28;20054;-75
2021/12/22 12:57:44;;;;;;;7.88;4.28;;;-7.60;99.90;;;;;;5027799;28;20513;-77
2021/12/22 13:00:25;;;;;;;10.13;4.28;;;-7.60;99.90;;;;;;5027594;28;20086;-76
2021/12/22 13:03:09;;;;;;;10.02;4.20;;;-7.70;99.90;;;;;;5029750;28;20405;-77
2021/12/22 13:05:40;;;;;;;8.43;4.65;;;-7.70;99.90;;;;;;5028950;28;20057;-76
2021/12/22 13:08:08;;;;;;;7.72;3.55;;;-7.70;99.90;;;;;;5028532;28;20128;-76
2021/12/22 13:10:36;;;;;;;7.57;3.85;;;-7.80;99.90;;;;;;5036497;28;20102;-79
2021/12/22 13:13:20;;;;;;;7.80;3.90;;;-7.80;99.90;;;;;;5041331;28;20519;-76
2021/12/22 13:15:50;;;;;;;6.90;3.20;;;-7.90;99.90;;;;;;5029404;28;20064;-77
2021/12/22 13:18:26;;;;;;;10.27;4.50;;;-7.90;99.90;;;;;;5033379;28;20131;-77